createdAt,value
2023-02-25T00:00:40.679Z,20.29
2023-02-25T00:01:41.749Z,20.28
2023-02-25T00:02:40.756Z,20.28
2023-02-25T00:03:40.865Z,20.29
2023-02-25T00:04:40.826Z,20.28
2023-02-25T00:05:40.868Z,20.29
2023-02-25T00:06:40.910Z,20.29
2023-02-25T00:07:40.968Z,20.29
2023-02-25T00:08:41.011Z,20.29
2023-02-25T00:09:41.088Z,20.29
2023-02-25T00:10:41.118Z,20.29
2023-02-25T00:11:41.162Z,20.29
2023-02-25T00:12:41.212Z,20.30
2023-02-25T00:13:41.278Z,20.29
2023-02-25T00:14:41.313Z,20.29
2023-02-25T00:15:41.368Z,20.29
2023-02-25T00:16:41.479Z,20.29
2023-02-25T00:17:41.475Z,20.29
2023-02-25T00:18:41.532Z,20.29
2023-02-25T00:19:41.580Z,20.28
2023-02-25T00:20:41.634Z,20.28
2023-02-25T00:21:41.674Z,20.28
2023-02-25T00:22:41.715Z,20.29
2023-02-25T00:23:41.765Z,20.29
2023-02-25T00:24:41.820Z,20.29
2023-02-25T00:25:41.862Z,20.29
2023-02-25T00:26:41.927Z,20.29
2023-02-25T00:27:41.960Z,20.29
2023-02-25T00:28:42.020Z,20.28
2023-02-25T00:29:42.064Z,20.28
2023-02-25T00:30:42.228Z,20.28
2023-02-25T00:31:42.401Z,20.29
2023-02-25T00:32:42.303Z,20.29
2023-02-25T00:33:42.440Z,20.28
2023-02-25T00:34:42.312Z,20.28
2023-02-25T00:35:42.357Z,20.29
2023-02-25T00:36:42.447Z,20.28
2023-02-25T00:37:42.436Z,20.28
2023-02-25T00:38:42.495Z,20.28
2023-02-25T00:39:42.582Z,20.29
2023-02-25T00:40:42.574Z,20.29
2023-02-25T00:41:42.630Z,20.28
2023-02-25T00:42:42.660Z,20.28
2023-02-25T00:43:42.695Z,20.28
2023-02-25T00:44:42.755Z,20.29
2023-02-25T00:45:42.786Z,20.29
2023-02-25T00:46:42.878Z,20.28
2023-02-25T00:47:42.881Z,20.28
2023-02-25T00:48:42.925Z,20.28
2023-02-25T00:49:42.984Z,20.28
2023-02-25T00:50:43.018Z,20.29
2023-02-25T00:51:43.057Z,20.28
2023-02-25T00:52:43.100Z,20.28
2023-02-25T00:53:43.151Z,20.28
2023-02-25T00:54:43.200Z,20.28
2023-02-25T00:55:43.253Z,20.28
2023-02-25T00:56:43.298Z,20.28
2023-02-25T00:57:43.367Z,20.28
2023-02-25T00:58:43.390Z,20.28
2023-02-25T00:59:43.439Z,20.27
2023-02-25T01:00:51.524Z,20.27
2023-02-25T01:01:44.554Z,20.27
2023-02-25T01:02:43.601Z,20.27
2023-02-25T01:03:43.627Z,20.27
2023-02-25T01:04:43.676Z,20.27
2023-02-25T01:05:43.731Z,20.27
2023-02-25T01:06:43.764Z,20.27
2023-02-25T01:07:43.809Z,20.26
2023-02-25T01:08:43.848Z,20.27
2023-02-25T01:09:43.897Z,20.27
2023-02-25T01:10:43.950Z,20.27
2023-02-25T01:11:43.993Z,20.27
2023-02-25T01:12:44.032Z,20.27
2023-02-25T01:13:44.103Z,20.27
2023-02-25T01:14:44.120Z,20.26
2023-02-25T01:15:44.230Z,20.27
2023-02-25T01:16:44.207Z,20.26
2023-02-25T01:17:44.254Z,20.27
2023-02-25T01:18:44.315Z,20.26
2023-02-25T01:19:44.365Z,20.26
2023-02-25T01:20:44.403Z,20.26
2023-02-25T01:21:44.455Z,20.26
2023-02-25T01:22:44.502Z,20.27
2023-02-25T01:23:44.552Z,20.27
2023-02-25T01:24:44.597Z,20.27
2023-02-25T01:25:44.649Z,20.26
2023-02-25T01:26:44.698Z,20.26
2023-02-25T01:27:44.731Z,20.26
2023-02-25T01:28:44.771Z,20.26
2023-02-25T01:29:44.812Z,20.26
2023-02-25T01:30:44.878Z,20.27
2023-02-25T01:31:45.104Z,20.26
2023-02-25T01:32:45.045Z,20.26
2023-02-25T01:33:45.063Z,20.26
2023-02-25T01:34:45.135Z,20.27
2023-02-25T01:35:45.175Z,20.27
2023-02-25T01:36:45.246Z,20.27
2023-02-25T01:37:45.295Z,20.26
2023-02-25T01:38:45.360Z,20.26
2023-02-25T01:39:45.418Z,20.27
2023-02-25T01:40:45.481Z,20.26
2023-02-25T01:48:45.989Z,20.25
2023-02-25T01:49:46.065Z,20.26
2023-02-25T01:50:46.100Z,20.26
2023-02-25T01:51:46.144Z,20.26
2023-02-25T01:52:46.224Z,20.25
2023-02-25T01:53:46.306Z,20.26
2023-02-25T01:54:46.360Z,20.26
2023-02-25T01:55:46.419Z,20.26
2023-02-25T01:56:46.503Z,20.25
2023-02-25T01:57:46.568Z,20.25
2023-02-25T01:58:46.624Z,20.26
2023-02-25T01:59:46.679Z,20.25
2023-02-25T02:00:46.800Z,20.26
2023-02-25T02:01:46.805Z,20.25
2023-02-25T02:02:46.891Z,20.25
2023-02-25T02:03:46.917Z,20.25
2023-02-25T02:04:46.995Z,20.25
2023-02-25T02:05:47.047Z,20.25
2023-02-25T02:06:47.121Z,20.24
2023-02-25T02:07:47.178Z,20.24
2023-02-25T02:08:47.230Z,20.24
2023-02-25T02:09:47.278Z,20.25
2023-02-25T02:10:47.380Z,20.25
2023-02-25T02:11:47.440Z,20.25
2023-02-25T02:12:47.493Z,20.25
2023-02-25T02:13:47.571Z,20.25
2023-02-25T02:14:47.622Z,20.24
2023-02-25T02:15:47.671Z,20.25
2023-02-25T02:16:47.732Z,20.24
2023-02-25T02:17:47.800Z,20.25
2023-02-25T02:18:47.852Z,20.25
2023-02-25T02:19:47.938Z,20.24
2023-02-25T02:20:47.960Z,20.24
2023-02-25T02:21:48.028Z,20.25
2023-02-25T02:22:48.094Z,20.24
2023-02-25T02:23:48.136Z,20.24
2023-02-25T02:24:48.193Z,20.24
2023-02-25T02:25:48.254Z,20.24
2023-02-25T02:26:48.305Z,20.24
2023-02-25T02:27:48.362Z,20.24
2023-02-25T02:28:48.418Z,20.24
2023-02-25T02:29:48.470Z,20.24
2023-02-25T02:30:48.559Z,20.24
2023-02-25T02:31:48.721Z,20.24
2023-02-25T02:32:48.763Z,20.24
2023-02-25T02:33:48.702Z,20.24
2023-02-25T02:34:48.764Z,20.24
2023-02-25T02:35:48.859Z,20.24
2023-02-25T02:36:48.926Z,20.24
2023-02-25T02:37:48.986Z,20.24
2023-02-25T02:38:49.052Z,20.25
2023-02-25T02:39:49.116Z,20.24
2023-02-25T02:40:49.166Z,20.24
2023-02-25T02:41:49.259Z,20.24
2023-02-25T02:42:49.309Z,20.24
2023-02-25T02:43:49.361Z,20.24
2023-02-25T02:44:49.442Z,20.24
2023-02-25T02:45:49.502Z,20.24
2023-02-25T02:46:49.525Z,20.24
2023-02-25T02:47:49.588Z,20.24
2023-02-25T02:48:49.662Z,20.24
2023-02-25T02:49:49.710Z,20.23
2023-02-25T02:50:49.768Z,20.24
2023-02-25T02:51:49.814Z,20.23
2023-02-25T03:14:51.158Z,20.22
2023-02-25T04:30:56.064Z,20.22
2023-02-25T04:31:56.191Z,20.21
2023-02-25T04:32:56.088Z,20.21
2023-02-25T04:33:56.153Z,20.21
2023-02-25T04:34:56.251Z,20.21
2023-02-25T04:35:56.380Z,20.21
2023-02-25T04:36:56.409Z,20.21
2023-02-25T04:37:56.492Z,20.21
2023-02-25T04:38:56.535Z,20.21
2023-02-25T04:39:56.592Z,20.20
2023-02-25T04:40:56.659Z,20.20
2023-02-25T04:41:56.709Z,20.21
2023-02-25T04:42:56.775Z,20.20
2023-02-25T04:43:56.832Z,20.21
2023-02-25T04:44:56.891Z,20.21
2023-02-25T04:45:56.939Z,20.20
2023-02-25T04:46:57.003Z,20.20
2023-02-25T04:47:57.051Z,20.21
2023-02-25T04:48:57.113Z,20.21
2023-02-25T04:49:57.159Z,20.20
2023-02-25T04:50:57.238Z,20.21
2023-02-25T04:51:57.292Z,20.20
2023-02-25T04:52:57.348Z,20.20
2023-02-25T04:53:57.410Z,20.21
2023-02-25T04:54:57.479Z,20.20
2023-02-25T04:55:57.550Z,20.21
2023-02-25T04:56:57.596Z,20.20
2023-02-25T04:57:57.659Z,20.20
2023-02-25T04:58:57.716Z,20.20
2023-02-25T04:59:57.794Z,20.21
2023-02-25T05:00:57.863Z,20.20
2023-02-25T05:01:57.927Z,20.20
2023-02-25T05:02:57.968Z,20.21
2023-02-25T05:03:58.021Z,20.19
2023-02-25T05:04:58.241Z,20.20
2023-02-25T05:05:58.175Z,20.20
2023-02-25T05:06:58.242Z,20.20
2023-02-25T05:07:58.292Z,20.20
2023-02-25T05:08:58.353Z,20.21
2023-02-25T05:09:58.402Z,20.21
2023-02-25T05:10:58.498Z,20.20
2023-02-25T05:11:58.586Z,20.20
2023-02-25T05:12:58.658Z,20.21
2023-02-25T05:13:58.729Z,20.20
2023-02-25T05:14:58.780Z,20.20
2023-02-25T05:15:58.892Z,20.20
2023-02-25T05:16:58.944Z,20.20
2023-02-25T05:17:59.005Z,20.20
2023-02-25T05:18:59.080Z,20.20
2023-02-25T05:19:59.183Z,20.20
2023-02-25T05:20:59.193Z,20.20
2023-02-25T05:21:59.248Z,20.21
2023-02-25T05:22:59.300Z,20.20
2023-02-25T05:23:59.360Z,20.20
2023-02-25T05:24:59.432Z,20.20
2023-02-25T05:25:59.477Z,20.20
2023-02-25T05:26:59.535Z,20.20
2023-02-25T05:27:59.595Z,20.20
2023-02-25T05:28:59.648Z,20.20
2023-02-25T05:29:59.754Z,20.20
2023-02-25T05:30:59.859Z,20.20
2023-02-25T05:32:00.075Z,20.20
2023-02-25T05:32:59.933Z,20.20
2023-02-25T05:33:59.959Z,20.19
2023-02-25T05:35:00.042Z,20.19
2023-02-25T05:36:00.133Z,20.20
2023-02-25T05:37:00.180Z,20.20
2023-02-25T05:38:00.256Z,20.20
2023-02-25T05:39:00.312Z,20.19
2023-02-25T05:40:00.378Z,20.20
2023-02-25T05:41:00.455Z,20.19
2023-02-25T05:42:00.534Z,20.19
2023-02-25T05:43:00.598Z,20.19
2023-02-25T05:44:00.668Z,20.19
2023-02-25T05:45:00.939Z,20.19
2023-02-25T05:46:00.792Z,20.19
2023-02-25T05:47:00.911Z,20.20
2023-02-25T05:48:00.902Z,20.19
2023-02-25T05:49:00.976Z,20.19
2023-02-25T05:50:01.022Z,20.19
2023-02-25T05:51:01.090Z,20.19
2023-02-25T05:52:01.141Z,20.19
2023-02-25T05:53:01.216Z,20.19
2023-02-25T05:54:01.300Z,20.19
2023-02-25T05:55:01.366Z,20.19
2023-02-25T05:56:01.432Z,20.20
2023-02-25T05:57:01.490Z,20.19
2023-02-25T05:58:01.567Z,20.19
2023-02-25T05:59:01.630Z,20.19
2023-02-25T06:00:01.718Z,20.19
2023-02-25T06:01:01.754Z,20.19
2023-02-25T06:02:01.839Z,20.19
2023-02-25T06:03:01.912Z,20.19
2023-02-25T06:04:01.929Z,20.19
2023-02-25T06:05:02.002Z,20.19
2023-02-25T06:06:02.067Z,20.18
2023-02-25T06:07:02.123Z,20.19
2023-02-25T06:08:02.184Z,20.19
2023-02-25T06:09:02.234Z,20.19
2023-02-25T06:10:02.297Z,20.18
2023-02-25T06:11:02.364Z,20.19
2023-02-25T06:12:02.417Z,20.19
2023-02-25T06:13:02.475Z,20.18
2023-02-25T06:14:02.531Z,20.19
2023-02-25T06:15:02.598Z,20.19
2023-02-25T06:16:02.700Z,20.18
2023-02-25T06:17:02.728Z,20.18
2023-02-25T07:07:05.990Z,20.18
2023-02-25T07:08:06.038Z,20.18
2023-02-25T07:09:06.104Z,20.18
2023-02-25T07:10:06.167Z,20.18
2023-02-25T07:11:06.227Z,20.18
2023-02-25T07:12:06.305Z,20.18
2023-02-25T07:13:06.377Z,20.18
2023-02-25T07:14:06.443Z,20.18
2023-02-25T07:15:06.498Z,20.17
2023-02-25T07:16:06.605Z,20.18
2023-02-25T07:17:06.656Z,20.18
2023-02-25T07:18:06.714Z,20.18
2023-02-25T07:19:06.782Z,20.17
2023-02-25T07:20:06.857Z,20.18
2023-02-25T07:21:06.908Z,20.18
2023-02-25T07:22:06.981Z,20.17
2023-02-25T07:32:07.899Z,20.18
2023-02-25T07:33:07.718Z,20.18
2023-02-25T07:34:07.753Z,20.18
2023-02-25T07:35:07.813Z,20.18
2023-02-25T07:36:07.881Z,20.17
2023-02-25T07:37:07.940Z,20.18
2023-02-25T07:38:08.004Z,20.17
2023-02-25T07:39:08.092Z,20.18
2023-02-25T07:40:08.165Z,20.18
2023-02-25T07:41:08.233Z,20.18
2023-02-25T07:42:08.304Z,20.17
2023-02-25T07:43:08.363Z,20.17
2023-02-25T07:44:08.444Z,20.17
2023-02-25T07:45:08.497Z,20.17
2023-02-25T07:46:08.701Z,20.17
2023-02-25T07:47:08.625Z,20.18
2023-02-25T07:48:08.688Z,20.18
2023-02-25T07:49:08.739Z,20.18
2023-02-25T07:50:10.331Z,20.18
2023-02-25T07:51:08.852Z,20.17
2023-02-25T07:52:08.905Z,20.17
2023-02-25T07:53:08.951Z,20.17
2023-02-25T07:54:09.002Z,20.17
2023-02-25T07:56:09.087Z,20.17
2023-02-25T07:57:09.135Z,20.18
2023-02-25T07:58:09.194Z,20.17
2023-02-25T07:59:09.236Z,20.17
2023-02-25T08:00:09.290Z,20.18
2023-02-25T08:01:09.388Z,20.18
2023-02-25T08:02:09.387Z,20.18
2023-02-25T08:03:09.430Z,20.18
2023-02-25T08:04:09.515Z,20.18
2023-02-25T08:05:09.529Z,20.19
2023-02-25T08:06:09.589Z,20.18
2023-02-25T08:07:09.639Z,20.18
2023-02-25T08:08:09.668Z,20.18
2023-02-25T08:09:09.765Z,20.18
2023-02-25T08:10:09.800Z,20.18
2023-02-25T08:11:09.817Z,20.18
2023-02-25T08:12:09.873Z,20.17
2023-02-25T08:13:09.927Z,20.17
2023-02-25T08:14:09.974Z,20.18
2023-02-25T08:15:10.027Z,20.18
2023-02-25T09:20:13.439Z,20.19
2023-02-25T09:59:16.002Z,20.20
2023-02-25T10:00:16.052Z,20.21
2023-02-25T10:01:16.107Z,20.21
2023-02-25T10:02:16.340Z,20.20
2023-02-25T10:03:16.343Z,20.20
2023-02-25T10:04:16.301Z,20.20
2023-02-25T10:05:16.395Z,20.20
2023-02-25T10:06:16.439Z,20.20
2023-02-25T10:07:16.518Z,20.20
2023-02-25T10:08:16.569Z,20.20
2023-02-25T10:09:16.630Z,20.21
2023-02-25T10:10:16.710Z,20.20
2023-02-25T10:11:16.772Z,20.20
2023-02-25T10:12:18.348Z,20.21
2023-02-25T10:13:16.979Z,20.21
2023-02-25T10:14:17.030Z,20.20
2023-02-25T10:15:17.114Z,20.20
2023-02-25T10:16:17.227Z,20.20
2023-02-25T10:17:17.239Z,20.20
2023-02-25T10:18:17.327Z,20.20
2023-02-25T10:19:17.376Z,20.20
2023-02-25T10:25:17.763Z,20.21
2023-02-25T12:38:26.001Z,20.17
2023-02-25T12:39:26.033Z,20.18
2023-02-25T12:40:26.104Z,20.17
2023-02-25T12:41:26.282Z,20.17
2023-02-25T12:42:26.228Z,20.17
2023-02-25T12:43:26.316Z,20.17
2023-02-25T12:44:26.383Z,20.17
2023-02-25T12:45:26.458Z,20.17
2023-02-25T12:46:26.526Z,20.17
2023-02-25T12:47:26.602Z,20.17
2023-02-25T12:48:26.668Z,20.16
2023-02-25T12:49:26.726Z,20.17
2023-02-25T12:50:26.797Z,20.17
2023-02-25T12:51:26.859Z,20.16
2023-02-25T12:52:26.920Z,20.16
2023-02-25T12:53:26.990Z,20.16
2023-02-25T12:54:27.047Z,20.16
2023-02-25T12:55:27.108Z,20.16
2023-02-25T12:57:27.224Z,20.15
2023-02-25T13:03:27.595Z,20.15
2023-02-25T13:04:27.644Z,20.15
2023-02-25T13:05:27.728Z,20.15
2023-02-25T13:06:27.790Z,20.16
2023-02-25T13:07:27.852Z,20.16
2023-02-25T13:08:27.919Z,20.14
2023-02-25T13:09:27.986Z,20.15
2023-02-25T13:10:28.045Z,20.15
2023-02-25T13:11:28.111Z,20.15
2023-02-25T13:12:28.175Z,20.15
2023-02-25T13:13:28.249Z,20.15
2023-02-25T13:14:28.379Z,20.14
2023-02-25T13:15:28.387Z,20.14
2023-02-25T13:16:28.492Z,20.15
2023-02-25T13:17:28.524Z,20.15
2023-02-25T13:18:28.586Z,20.15
2023-02-25T13:19:28.670Z,20.14
2023-02-25T13:20:28.716Z,20.15
2023-02-25T13:21:28.841Z,20.14
2023-02-25T13:22:28.884Z,20.15
2023-02-25T13:23:28.929Z,20.15
2023-02-25T13:24:28.978Z,20.15
2023-02-25T13:25:29.046Z,20.14
2023-02-25T13:26:29.096Z,20.15
2023-02-25T13:27:29.161Z,20.14
2023-02-25T13:28:29.236Z,20.14
2023-02-25T13:29:29.281Z,20.14
2023-02-25T13:30:29.367Z,20.14
2023-02-25T13:31:29.442Z,20.14
2023-02-25T13:32:29.572Z,20.14
2023-02-25T13:33:29.530Z,20.14
2023-02-25T13:34:29.598Z,20.14
2023-02-25T13:35:29.657Z,20.14
2023-02-25T13:36:29.744Z,20.14
2023-02-25T13:37:29.793Z,20.14
2023-02-25T13:38:29.854Z,20.14
2023-02-25T13:39:29.929Z,20.14
2023-02-25T13:40:29.991Z,20.14
2023-02-25T13:41:30.040Z,20.14
2023-02-25T13:42:30.109Z,20.14
2023-02-25T13:43:30.170Z,20.13
2023-02-25T13:44:30.230Z,20.13
2023-02-25T13:45:30.309Z,20.13
2023-02-25T13:46:30.355Z,20.14
2023-02-25T13:47:30.429Z,20.13
2023-02-25T13:48:30.475Z,20.13
2023-02-25T13:49:30.545Z,20.13
2023-02-25T13:50:30.606Z,20.13
2023-02-25T13:51:30.671Z,20.13
2023-02-25T13:52:30.718Z,20.13
2023-02-25T13:53:30.777Z,20.13
2023-02-25T13:54:30.849Z,20.13
2023-02-25T13:55:30.913Z,20.13
2023-02-25T13:56:30.977Z,20.12
2023-02-25T13:57:31.042Z,20.13
2023-02-25T13:58:31.101Z,20.13
2023-02-25T13:59:31.304Z,20.13
2023-02-25T14:00:31.228Z,20.13
2023-02-25T14:01:31.323Z,20.13
2023-02-25T14:02:31.441Z,20.13
2023-02-25T14:03:31.424Z,20.13
2023-02-25T14:04:31.497Z,20.12
2023-02-25T14:05:31.557Z,20.12
2023-02-25T14:06:31.622Z,20.12
2023-02-25T14:07:31.681Z,20.13
2023-02-25T14:08:31.754Z,20.13
2023-02-25T14:09:31.823Z,20.13
2023-02-25T14:10:31.885Z,20.12
2023-02-25T14:11:31.961Z,20.13
2023-02-25T14:12:32.002Z,20.12
2023-02-25T14:13:32.077Z,20.12
2023-02-25T14:14:32.184Z,20.12
2023-02-25T14:15:32.239Z,20.11
2023-02-25T15:12:35.964Z,20.08
2023-02-25T15:13:36.030Z,20.08
2023-02-25T15:14:36.100Z,20.08
2023-02-25T15:15:36.206Z,20.07
2023-02-25T15:16:36.238Z,20.07
2023-02-25T15:17:36.297Z,20.08
2023-02-25T15:18:36.369Z,20.08
2023-02-25T15:19:36.443Z,20.07
2023-02-25T17:34:45.978Z,20.03
2023-02-25T17:35:46.034Z,20.02
2023-02-25T17:36:46.099Z,20.03
2023-02-25T17:37:46.172Z,20.03
2023-02-25T17:38:46.245Z,20.03
2023-02-25T17:39:46.320Z,20.02
2023-02-25T17:40:46.398Z,20.03
2023-02-25T17:41:46.461Z,20.02
2023-02-25T17:42:46.540Z,20.03
2023-02-25T17:43:46.606Z,20.03
2023-02-25T17:44:46.681Z,20.02
2023-02-25T17:45:46.790Z,20.02
2023-02-25T17:46:46.836Z,20.02
2023-02-25T17:47:46.904Z,20.02
2023-02-25T17:48:46.986Z,20.03
2023-02-25T17:49:47.039Z,20.02
2023-02-25T17:50:47.139Z,20.02
2023-02-25T17:51:47.170Z,20.02
2023-02-25T17:52:47.241Z,20.03
2023-02-25T17:53:47.330Z,20.02
2023-02-25T17:54:47.379Z,20.02
2023-02-25T17:55:47.446Z,20.02
2023-02-25T18:16:48.959Z,20.01
2023-02-25T18:53:51.607Z,20.00
2023-02-25T18:54:51.681Z,20.01
2023-02-25T18:55:51.784Z,20.00
2023-02-25T18:56:51.810Z,20.01
2023-02-25T18:57:51.892Z,20.00
2023-02-25T18:58:51.961Z,20.01
2023-02-25T18:59:52.040Z,20.00
2023-02-25T19:00:52.123Z,20.00
2023-02-25T19:01:52.291Z,20.00
2023-02-25T19:02:52.314Z,20.00
2023-02-25T19:03:52.334Z,20.01
2023-02-25T19:04:52.413Z,20.00
2023-02-25T19:05:52.464Z,20.00
2023-02-25T19:06:52.577Z,20.01
2023-02-25T19:07:52.606Z,20.01
2023-02-25T19:08:52.684Z,20.01
2023-02-25T19:09:52.775Z,20.00
2023-02-25T19:10:52.828Z,20.00
2023-02-25T19:11:52.899Z,20.00
2023-02-25T19:12:52.970Z,20.00
2023-02-25T19:13:53.070Z,20.01
2023-02-25T19:14:53.141Z,20.00
2023-02-25T19:15:53.241Z,20.00
2023-02-25T19:16:53.285Z,20.00
2023-02-25T19:17:53.344Z,20.00
2023-02-25T19:18:53.424Z,20.01
2023-02-25T19:19:53.518Z,20.00
2023-02-25T19:20:53.585Z,20.00
2023-02-25T19:21:53.653Z,20.00
2023-02-25T19:22:53.737Z,20.00
2023-02-25T19:23:53.831Z,20.01
2023-02-25T19:24:53.909Z,20.01
2023-02-25T19:25:53.959Z,20.00
2023-02-25T19:26:54.029Z,20.00
2023-02-25T19:27:54.106Z,20.00
2023-02-25T19:28:54.191Z,20.00
2023-02-25T19:29:54.267Z,20.00
2023-02-25T19:30:54.371Z,20.00
2023-02-25T19:31:54.544Z,20.00
2023-02-25T19:32:54.468Z,20.00
2023-02-25T19:33:54.546Z,20.00
2023-02-25T19:34:54.621Z,20.00
2023-02-25T19:35:54.695Z,20.00
2023-02-25T19:36:54.758Z,20.00
2023-02-25T19:37:54.841Z,20.00
2023-02-25T19:38:54.906Z,19.99
2023-02-25T19:39:54.997Z,19.99
2023-02-25T19:40:55.053Z,20.00
2023-02-25T19:41:55.138Z,20.00
2023-02-25T19:42:55.200Z,20.00
2023-02-25T19:43:55.267Z,20.00
2023-02-25T19:44:55.343Z,19.99
2023-02-25T19:45:55.399Z,20.00
2023-02-25T19:46:55.530Z,20.00
2023-02-25T19:47:55.557Z,20.00
2023-02-25T19:48:55.624Z,20.00
2023-02-25T19:49:55.688Z,19.99
2023-02-25T19:50:55.769Z,19.99
2023-02-25T19:51:55.858Z,20.00
2023-02-25T19:52:55.935Z,20.00
2023-02-25T19:53:55.997Z,19.99
2023-02-25T19:54:56.066Z,19.99
2023-02-25T19:55:56.154Z,19.99
2023-02-25T19:56:56.212Z,19.99
2023-02-25T19:57:56.288Z,19.98
2023-02-25T19:58:56.356Z,19.98
2023-02-25T19:59:56.440Z,19.98
2023-02-25T20:00:56.555Z,19.98
2023-02-25T20:01:56.589Z,19.98
2023-02-25T20:02:56.661Z,19.98
2023-02-25T20:03:56.753Z,19.98
2023-02-25T20:04:56.797Z,19.98
2023-02-25T20:05:56.874Z,19.97
2023-02-25T20:06:56.964Z,19.97
2023-02-25T20:07:57.020Z,19.97
2023-02-25T20:08:57.090Z,19.97
2023-02-25T20:09:57.161Z,19.98
2023-02-25T20:10:57.247Z,19.98
2023-02-25T20:11:57.317Z,19.97
2023-02-25T20:12:57.398Z,19.97
2023-02-25T20:13:57.465Z,19.97
2023-02-25T20:14:57.539Z,19.98
2023-02-25T20:15:57.603Z,19.98
2023-02-25T20:16:57.665Z,19.97
2023-02-25T20:17:57.753Z,19.97
2023-02-25T20:18:57.832Z,19.97
2023-02-25T20:19:57.904Z,19.98
2023-02-25T20:20:57.981Z,19.98
2023-02-25T20:21:58.051Z,19.98
2023-02-25T20:22:58.126Z,19.98
2023-02-25T20:23:58.266Z,19.98
2023-02-25T20:24:58.280Z,19.98
2023-02-25T20:25:58.358Z,19.98
2023-02-25T20:26:58.418Z,19.98
2023-02-25T20:27:58.497Z,19.98
2023-02-25T20:28:58.573Z,19.98
2023-02-25T20:29:58.713Z,19.98
2023-02-25T20:30:58.736Z,19.99
2023-02-25T20:31:58.836Z,19.99
2023-02-25T20:32:58.818Z,19.99
2023-02-25T20:33:58.900Z,19.98
2023-02-25T20:34:58.954Z,19.98
2023-02-25T20:35:59.041Z,19.99
2023-02-25T20:36:59.121Z,19.98
2023-02-25T20:37:59.178Z,19.98
2023-02-25T20:38:59.253Z,19.98
2023-02-25T20:39:59.323Z,19.98
2023-02-25T20:40:59.388Z,19.98
2023-02-25T20:41:59.463Z,19.98
2023-02-25T20:42:59.545Z,19.99
2023-02-25T20:43:59.616Z,19.98
2023-02-25T20:44:59.686Z,19.98
2023-02-25T20:45:59.823Z,19.98
2023-02-25T20:46:59.823Z,19.97
2023-02-25T20:47:59.906Z,19.98
2023-02-25T20:48:59.997Z,19.97
2023-02-25T20:50:00.099Z,19.98
2023-02-25T20:51:00.154Z,19.97
2023-02-25T20:52:00.201Z,19.97
2023-02-25T20:53:00.276Z,19.97
2023-02-25T20:54:00.358Z,19.97
2023-02-25T20:55:00.424Z,19.97
2023-02-25T20:56:00.509Z,19.97
2023-02-25T20:57:00.578Z,19.97
2023-02-25T20:58:00.659Z,19.97
2023-02-25T20:59:00.723Z,19.97
2023-02-25T21:00:01.065Z,19.97
2023-02-25T21:01:00.899Z,19.98
2023-02-25T21:02:00.951Z,19.97
2023-02-25T21:03:01.025Z,19.97
2023-02-25T21:04:01.158Z,19.97
2023-02-25T21:05:01.211Z,19.97
2023-02-25T21:06:01.285Z,19.97
2023-02-25T21:07:01.354Z,19.97
2023-02-25T21:08:01.439Z,19.97
2023-02-25T21:09:01.520Z,19.97
2023-02-25T21:10:01.597Z,19.97
2023-02-25T21:11:01.657Z,19.97
2023-02-25T21:12:01.735Z,19.97
2023-02-25T22:07:05.985Z,19.96
2023-02-25T22:08:06.045Z,19.96
2023-02-25T22:09:06.130Z,19.97
2023-02-25T22:10:06.198Z,19.96
2023-02-25T22:11:06.282Z,19.96
2023-02-25T22:12:06.354Z,19.96
2023-02-25T22:13:06.427Z,19.96
2023-02-25T22:14:06.503Z,19.97
2023-02-25T22:15:06.583Z,19.96
2023-02-25T22:16:06.703Z,19.96
2023-02-25T22:17:06.718Z,19.96
2023-02-25T22:18:06.799Z,19.97
2023-02-25T22:19:06.868Z,19.97
2023-02-25T22:20:06.964Z,19.96
2023-02-25T22:21:07.032Z,19.96
2023-02-25T22:22:07.096Z,19.96
2023-02-25T22:23:07.191Z,19.96
2023-02-25T22:24:07.244Z,19.96
2023-02-25T22:25:07.310Z,19.97
2023-02-25T22:26:07.385Z,19.96
2023-02-25T23:09:10.614Z,19.97
2023-02-25T23:10:10.697Z,19.97
2023-02-25T23:11:10.740Z,19.96
2023-02-25T23:12:10.814Z,19.97
2023-02-25T23:13:10.884Z,19.96
2023-02-25T23:14:10.957Z,19.96
2023-02-25T23:15:11.041Z,19.96
2023-02-25T23:16:11.141Z,19.97
2023-02-25T23:17:11.208Z,19.97
2023-02-25T23:18:11.259Z,19.96
2023-02-25T23:19:11.349Z,19.96
2023-02-25T23:20:11.413Z,19.97
2023-02-25T23:21:11.480Z,19.97
2023-02-25T23:22:11.557Z,19.97
2023-02-25T23:23:11.641Z,19.97
2023-02-25T23:24:11.725Z,19.96
2023-02-25T23:25:11.792Z,19.97
2023-02-25T23:26:11.867Z,19.96
2023-02-25T23:27:11.928Z,19.96
2023-02-25T23:28:12.004Z,19.96
2023-02-25T23:29:12.093Z,19.96
2023-02-25T23:30:12.152Z,19.96
2023-02-25T23:31:12.350Z,19.97
2023-02-25T23:32:12.308Z,19.96
2023-02-25T23:33:12.581Z,19.96
2023-02-25T23:34:12.448Z,19.96
2023-02-25T23:35:12.527Z,19.97
2023-02-25T23:36:12.621Z,19.96
2023-02-25T23:37:14.531Z,19.96
2023-02-25T23:38:12.801Z,19.96
2023-02-25T23:39:12.900Z,19.96
2023-02-25T23:40:12.962Z,19.96
2023-02-25T23:41:13.022Z,19.96
2023-02-25T23:42:13.111Z,19.97
2023-02-25T23:43:13.178Z,19.96
2023-02-25T23:44:13.270Z,19.97
2023-02-25T23:45:13.346Z,19.96
2023-02-25T23:46:13.430Z,19.97
2023-02-25T23:47:13.496Z,19.96
2023-02-25T23:48:13.558Z,19.97
2023-02-25T23:49:13.635Z,19.96
2023-02-25T23:50:13.759Z,19.96
2023-02-25T23:51:14.298Z,19.96
2023-02-25T23:52:13.892Z,19.96
2023-02-25T23:53:13.976Z,19.96
2023-02-25T23:54:14.063Z,19.96
2023-02-25T23:55:14.138Z,19.96
2023-02-25T23:56:14.207Z,19.96
2023-02-25T23:57:14.299Z,19.96
2023-02-25T23:58:14.379Z,19.96
2023-02-25T23:59:14.467Z,19.96
